Time;durP1;ratioP1;P1;durP2;ratioP2;P2;SDS_P1;SDS_P2;PMS_P1;PMS_P2;Temp;Humidity;BMP_temperature;BMP_pressure;BME280_temperature;BME280_humidity;BME280_pressure;Samples;Min_cycle;Max_cycle;Signal;HPM_P1;HPM_P2
2021/03/02 00:01:26;;;;;;;18.10;13.40;;;10.70;99.90;;;;;;4978843;28;20097;-76
2021/03/02 00:04:26;;;;;;;21.60;14.85;;;10.70;99.90;;;;;;4987860;28;20058;-76
2021/03/02 00:06:53;;;;;;;16.60;13.65;;;10.70;99.90;;;;;;4976558;28;20046;-76
2021/03/02 00:09:19;;;;;;;21.40;13.80;;;10.70;99.90;;;;;;4984706;28;20488;-76
2021/03/02 00:11:47;;;;;;;19.67;13.77;;;10.60;99.90;;;;;;4981219;28;20023;-76
2021/03/02 00:14:13;;;;;;;22.58;14.32;;;10.70;99.90;;;;;;4986475;28;20069;-76
2021/03/02 00:16:47;;;;;;;18.05;12.25;;;10.60;99.90;;;;;;4983248;28;20420;-76
2021/03/02 00:19:14;;;;;;;20.40;14.60;;;10.60;99.90;;;;;;4985941;28;20042;-76
2021/03/02 00:21:48;;;;;;;14.75;12.93;;;10.60;99.90;;;;;;4986473;28;20046;-76
2021/03/02 00:24:23;;;;;;;12.80;10.55;;;10.50;99.90;;;;;;4984245;28;20109;-77
2021/03/02 00:26:56;;;;;;;16.13;11.80;;;10.40;99.90;;;;;;4981381;28;21667;-76
2021/03/02 00:29:23;;;;;;;15.18;12.35;;;10.30;99.90;;;;;;4985692;28;20045;-77
2021/03/02 00:31:50;;;;;;;14.20;12.13;;;10.20;99.90;;;;;;4987716;28;20068;-76
2021/03/02 00:34:16;;;;;;;14.75;11.75;;;10.20;99.90;;;;;;4988944;28;20030;-76
2021/03/02 00:36:42;;;;;;;13.88;11.93;;;10.10;99.90;;;;;;4980804;28;20058;-77
2021/03/02 00:39:08;;;;;;;16.92;12.18;;;10.10;99.90;;;;;;4987630;28;20031;-76
2021/03/02 00:41:34;;;;;;;14.30;12.85;;;10.20;99.90;;;;;;4992819;28;20018;-76
2021/03/02 00:44:00;;;;;;;14.20;12.57;;;10.20;99.90;;;;;;4985643;28;20030;-76
2021/03/02 00:46:27;;;;;;;16.75;13.35;;;10.00;99.90;;;;;;4981312;28;20058;-76
2021/03/02 00:48:53;;;;;;;16.15;12.88;;;10.00;99.90;;;;;;4981344;28;20042;-76
2021/03/02 00:51:19;;;;;;;14.48;12.45;;;10.00;99.90;;;;;;4986098;28;20030;-76
2021/03/02 00:53:48;;;;;;;14.98;12.85;;;10.00;99.90;;;;;;4981133;28;20062;-77
2021/03/02 00:56:14;;;;;;;16.60;11.68;;;9.90;99.90;;;;;;4981638;28;20098;-76
2021/03/02 00:58:41;;;;;;;19.25;13.00;;;9.90;99.90;;;;;;4981943;28;20042;-76
2021/03/02 01:01:07;;;;;;;14.93;12.20;;;9.90;99.90;;;;;;4977986;28;20134;-76
2021/03/02 01:04:31;;;;;;;16.00;12.70;;;9.90;99.90;;;;;;4983299;28;20506;-76
2021/03/02 01:06:57;;;;;;;17.20;13.10;;;9.80;99.90;;;;;;4983711;28;20070;-76
2021/03/02 01:09:23;;;;;;;16.35;11.85;;;9.60;99.90;;;;;;4978479;28;20057;-76
2021/03/02 01:11:49;;;;;;;18.33;13.55;;;9.60;99.90;;;;;;4978933;28;20039;-76
2021/03/02 01:14:15;;;;;;;15.75;12.20;;;9.60;99.90;;;;;;4982488;28;20072;-77
2021/03/02 01:16:41;;;;;;;16.80;12.35;;;9.70;99.90;;;;;;4982725;28;20022;-76
2021/03/02 01:19:07;;;;;;;17.77;12.40;;;9.80;99.90;;;;;;4986945;28;20207;-76
2021/03/02 01:21:33;;;;;;;14.13;11.52;;;9.70;99.90;;;;;;4989412;28;20523;-77
2021/03/02 01:23:59;;;;;;;18.08;13.13;;;9.60;99.90;;;;;;4988458;28;20116;-76
2021/03/02 01:26:25;;;;;;;19.25;12.43;;;9.70;99.90;;;;;;4982337;28;20029;-76
2021/03/02 01:28:50;;;;;;;15.80;12.23;;;9.80;99.90;;;;;;4986360;28;20093;-76
2021/03/02 01:31:16;;;;;;;15.85;11.27;;;9.80;99.90;;;;;;4982605;28;20026;-77
2021/03/02 01:33:42;;;;;;;17.40;12.75;;;9.80;99.90;;;;;;4979185;28;20058;-76
2021/03/02 01:36:09;;;;;;;12.55;9.98;;;9.80;99.90;;;;;;4983869;28;20495;-76
2021/03/02 01:38:36;;;;;;;17.13;12.68;;;9.80;99.90;;;;;;4987973;28;20031;-76
2021/03/02 01:41:02;;;;;;;15.43;12.07;;;10.00;99.90;;;;;;4995705;28;20086;-76
2021/03/02 01:43:28;;;;;;;14.93;10.63;;;10.00;99.90;;;;;;5007640;28;20042;-76
2021/03/02 01:45:54;;;;;;;16.15;11.77;;;10.00;99.90;;;;;;4991122;28;20030;-76
2021/03/02 01:48:20;;;;;;;18.67;12.75;;;10.10;99.90;;;;;;4987471;28;20023;-76
2021/03/02 01:50:45;;;;;;;15.32;12.88;;;10.00;99.90;;;;;;4983214;28;20102;-76
2021/03/02 01:53:11;;;;;;;21.83;10.98;;;10.00;99.90;;;;;;4977153;28;20029;-76
2021/03/02 01:55:38;;;;;;;13.23;10.90;;;10.10;99.90;;;;;;4992960;28;20065;-76
2021/03/02 01:58:04;;;;;;;17.77;11.25;;;10.20;99.90;;;;;;4994978;28;20026;-76
2021/03/02 02:00:33;;;;;;;14.73;11.50;;;10.20;99.90;;;;;;4985935;28;20046;-76
2021/03/02 02:03:14;;;;;;;12.98;11.13;;;10.00;99.90;;;;;;4984684;28;20030;-77
2021/03/02 02:06:19;;;;;;;14.85;10.77;;;9.90;99.90;;;;;;4983623;28;20497;-77
2021/03/02 02:08:59;;;;;;;14.98;11.75;;;9.80;99.90;;;;;;4987780;28;20034;-76
2021/03/02 02:11:38;;;;;;;16.55;13.20;;;9.80;99.90;;;;;;4975992;28;20053;-76
2021/03/02 02:14:33;;;;;;;17.65;12.57;;;9.90;99.90;;;;;;4983211;28;20034;-76
2021/03/02 02:17:05;;;;;;;14.93;11.90;;;9.90;99.90;;;;;;4977665;28;20066;-76
2021/03/02 02:19:45;;;;;;;14.43;11.80;;;9.80;99.90;;;;;;4983064;28;20027;-77
2021/03/02 02:22:34;;;;;;;14.10;12.45;;;9.70;99.90;;;;;;4986763;28;20060;-76
2021/03/02 02:25:10;;;;;;;13.77;11.55;;;9.60;99.90;;;;;;4963822;28;20498;-76
2021/03/02 02:27:37;;;;;;;17.27;12.75;;;9.40;99.90;;;;;;4977087;28;20030;-77
2021/03/02 02:30:04;;;;;;;13.55;11.32;;;9.30;99.90;;;;;;4984089;28;20082;-77
2021/03/02 02:32:31;;;;;;;20.13;12.10;;;9.20;99.90;;;;;;4982735;28;20027;-77
2021/03/02 02:35:00;;;;;;;17.90;12.52;;;9.10;99.90;;;;;;4992408;28;20031;-76
2021/03/02 02:37:31;;;;;;;13.80;10.18;;;9.00;99.90;;;;;;5005942;28;20038;-76
2021/03/02 02:39:57;;;;;;;19.13;12.27;;;9.00;99.90;;;;;;5009355;28;20046;-76
2021/03/02 02:42:25;;;;;;;15.60;11.25;;;9.20;99.90;;;;;;5003507;28;20125;-76
2021/03/02 02:44:53;;;;;;;15.63;12.05;;;9.50;99.90;;;;;;5005002;28;20042;-76
2021/03/02 02:47:19;;;;;;;15.93;12.18;;;9.80;99.90;;;;;;4997199;28;20019;-76
2021/03/02 02:49:47;;;;;;;13.48;11.65;;;9.90;99.90;;;;;;4981881;28;20028;-75
2021/03/02 02:52:17;;;;;;;14.57;11.38;;;10.00;99.90;;;;;;4985345;28;20023;-76
2021/03/02 02:54:46;;;;;;;14.10;10.50;;;10.00;99.90;;;;;;4981856;28;20056;-77
2021/03/02 02:57:18;;;;;;;13.48;10.60;;;10.00;99.90;;;;;;4986935;28;20062;-76
2021/03/02 02:59:47;;;;;;;14.23;11.45;;;9.90;99.90;;;;;;4984618;28;20038;-76
2021/03/02 03:02:27;;;;;;;15.63;11.80;;;10.00;99.90;;;;;;4983946;28;20061;-76
2021/03/02 03:04:58;;;;;;;17.25;11.85;;;9.90;99.90;;;;;;4977782;28;20121;-76
2021/03/02 03:07:40;;;;;;;15.63;12.07;;;9.90;99.90;;;;;;4980977;28;20118;-76
2021/03/02 03:10:07;;;;;;;14.90;11.65;;;9.90;99.90;;;;;;4977019;28;20026;-76
2021/03/02 03:12:38;;;;;;;17.25;12.50;;;9.80;99.90;;;;;;4983134;28;20037;-76
2021/03/02 03:15:08;;;;;;;16.83;11.15;;;9.70;99.90;;;;;;4977843;28;20022;-76
2021/03/02 03:17:38;;;;;;;13.80;11.52;;;9.60;99.90;;;;;;4982697;28;20030;-76
2021/03/02 03:20:07;;;;;;;14.50;12.55;;;9.40;99.90;;;;;;4984310;28;20050;-76
2021/03/02 03:22:34;;;;;;;18.95;12.77;;;9.70;99.90;;;;;;4985261;28;20098;-76
2021/03/02 03:25:03;;;;;;;23.25;15.18;;;9.80;99.90;;;;;;4982187;28;20027;-76
2021/03/02 03:27:32;;;;;;;17.08;14.00;;;9.90;99.90;;;;;;4972375;28;20031;-76
2021/03/02 03:30:00;;;;;;;21.83;14.68;;;10.00;99.90;;;;;;4978076;28;20027;-76
2021/03/02 03:32:28;;;;;;;18.77;15.15;;;10.00;99.90;;;;;;4978704;28;20057;-76
2021/03/02 03:35:01;;;;;;;22.08;15.07;;;10.00;99.90;;;;;;4981500;28;20026;-76
2021/03/02 03:37:27;;;;;;;21.40;13.50;;;10.00;99.90;;;;;;4978803;28;20022;-76
2021/03/02 03:39:53;;;;;;;17.60;13.48;;;10.00;99.90;;;;;;4983163;28;20520;-76
2021/03/02 03:42:19;;;;;;;18.52;15.15;;;10.00;99.90;;;;;;4975880;28;20054;-76
2021/03/02 03:44:44;;;;;;;18.95;14.65;;;10.00;99.90;;;;;;4981515;28;20042;-76
2021/03/02 03:47:10;;;;;;;20.60;15.88;;;9.90;99.90;;;;;;4981079;28;20113;-76
2021/03/02 03:49:36;;;;;;;17.73;13.80;;;9.90;99.90;;;;;;4978917;28;20493;-76
2021/03/02 03:52:06;;;;;;;20.80;13.73;;;9.80;99.90;;;;;;4984059;28;20077;-76
2021/03/02 03:54:33;;;;;;;23.15;16.27;;;9.80;99.90;;;;;;4983528;28;20038;-76
2021/03/02 03:57:00;;;;;;;16.95;12.73;;;9.80;99.90;;;;;;4975296;28;20027;-76
2021/03/02 03:59:26;;;;;;;24.23;14.80;;;9.80;99.90;;;;;;4986076;28;20034;-76
2021/03/02 04:01:54;;;;;;;25.02;15.82;;;9.80;99.90;;;;;;4991149;28;20067;-76
2021/03/02 04:04:22;;;;;;;24.23;16.15;;;9.80;99.90;;;;;;4982399;28;20026;-76
2021/03/02 04:06:49;;;;;;;23.30;15.82;;;9.80;99.90;;;;;;4977795;28;20023;-76
2021/03/02 04:09:16;;;;;;;16.10;13.23;;;9.80;99.90;;;;;;4982393;28;20026;-76
2021/03/02 04:11:42;;;;;;;22.90;15.52;;;9.70;99.90;;;;;;4984481;28;20026;-76
2021/03/02 04:14:09;;;;;;;19.40;15.60;;;9.70;99.90;;;;;;4985002;28;20403;-76
2021/03/02 04:16:37;;;;;;;17.75;14.20;;;9.70;99.90;;;;;;4985749;28;20059;-76
2021/03/02 04:19:05;;;;;;;19.00;15.02;;;9.70;99.90;;;;;;4977016;28;20126;-76
2021/03/02 04:21:31;;;;;;;21.23;14.98;;;9.70;99.90;;;;;;4980331;28;20027;-76
2021/03/02 04:23:59;;;;;;;19.85;14.82;;;9.70;99.90;;;;;;4980678;28;20489;-76
2021/03/02 04:26:25;;;;;;;16.88;14.05;;;9.70;99.90;;;;;;4987196;28;20122;-76
2021/03/02 04:28:50;;;;;;;22.48;15.63;;;9.70;99.90;;;;;;4984483;28;20057;-76
2021/03/02 04:31:17;;;;;;;21.38;16.10;;;9.70;99.90;;;;;;4983138;28;20427;-77
2021/03/02 04:33:43;;;;;;;22.80;14.88;;;9.70;99.90;;;;;;4982246;28;20015;-76
2021/03/02 04:36:09;;;;;;;22.92;15.82;;;9.70;99.90;;;;;;4980619;28;20042;-76
2021/03/02 04:38:35;;;;;;;19.70;14.02;;;9.70;99.90;;;;;;4977960;28;20081;-76
2021/03/02 04:41:01;;;;;;;18.83;14.68;;;9.70;99.90;;;;;;4976897;28;20027;-78
2021/03/02 04:43:27;;;;;;;22.40;16.33;;;9.70;99.90;;;;;;4985029;28;20033;-76
2021/03/02 04:45:53;;;;;;;14.98;12.75;;;9.70;99.90;;;;;;4989576;28;20026;-76
2021/03/02 04:48:19;;;;;;;17.90;14.13;;;9.70;99.90;;;;;;4989871;28;20022;-76
2021/03/02 04:50:45;;;;;;;21.67;14.80;;;9.70;99.90;;;;;;4984863;28;20026;-76
2021/03/02 04:53:12;;;;;;;18.38;13.02;;;9.70;99.90;;;;;;4977955;28;20085;-76
2021/03/02 04:55:38;;;;;;;17.30;14.75;;;9.70;99.90;;;;;;4983981;28;20030;-76
2021/03/02 04:58:04;;;;;;;18.85;14.98;;;9.70;99.90;;;;;;4986466;28;20388;-76
2021/03/02 05:00:30;;;;;;;22.15;16.27;;;9.70;99.90;;;;;;4983086;28;20114;-76
2021/03/02 05:02:56;;;;;;;17.25;14.07;;;9.60;99.90;;;;;;4986705;28;20062;-76
2021/03/02 05:05:22;;;;;;;19.63;14.15;;;9.70;99.90;;;;;;4982391;28;20255;-76
2021/03/02 05:07:48;;;;;;;20.95;13.73;;;9.70;99.90;;;;;;4988576;28;20481;-76
2021/03/02 05:10:14;;;;;;;17.90;14.52;;;9.80;99.90;;;;;;4981190;28;20023;-76
2021/03/02 05:12:40;;;;;;;16.77;13.65;;;9.80;99.90;;;;;;4986184;28;20023;-76
2021/03/02 05:15:07;;;;;;;20.42;15.00;;;9.70;99.90;;;;;;4982583;28;20035;-76
2021/03/02 05:17:33;;;;;;;22.40;15.63;;;9.70;99.90;;;;;;4977925;28;20489;-76
2021/03/02 05:19:59;;;;;;;18.75;15.55;;;9.70;99.90;;;;;;4997509;28;20027;-76
2021/03/02 05:22:24;;;;;;;24.73;16.30;;;9.70;99.90;;;;;;4996685;28;20086;-76
2021/03/02 05:24:50;;;;;;;20.90;15.75;;;9.60;99.90;;;;;;4999202;28;20082;-76
2021/03/02 05:27:16;;;;;;;17.55;13.23;;;9.50;99.90;;;;;;4982882;28;20027;-76
2021/03/02 05:29:42;;;;;;;20.80;13.73;;;9.50;99.90;;;;;;4998535;28;20042;-76
2021/03/02 05:32:08;;;;;;;19.33;14.85;;;9.50;99.90;;;;;;4997208;28;20090;-76
2021/03/02 05:34:34;;;;;;;24.15;14.45;;;9.40;99.90;;;;;;4977927;28;20060;-76
2021/03/02 05:37:00;;;;;;;19.27;15.40;;;9.40;99.90;;;;;;4990373;28;20023;-76
2021/03/02 05:39:26;;;;;;;25.45;16.55;;;9.40;99.90;;;;;;4981570;28;20065;-76
2021/03/02 05:41:53;;;;;;;16.85;14.55;;;9.40;99.90;;;;;;4995545;28;20357;-76
2021/03/02 05:44:19;;;;;;;19.52;13.80;;;9.40;99.90;;;;;;4993610;28;20027;-76
2021/03/02 05:46:45;;;;;;;25.83;14.98;;;9.50;99.90;;;;;;4994682;28;20033;-76
2021/03/02 05:49:12;;;;;;;18.17;14.27;;;9.60;99.90;;;;;;4986623;28;20018;-76
2021/03/02 05:51:40;;;;;;;17.42;13.27;;;9.50;99.90;;;;;;4993191;28;20023;-76
2021/03/02 05:54:07;;;;;;;21.02;15.45;;;9.60;99.90;;;;;;4998974;28;20019;-76
2021/03/02 05:56:40;;;;;;;26.70;16.65;;;9.60;99.90;;;;;;4986731;28;20027;-76
2021/03/02 05:59:07;;;;;;;20.35;15.45;;;9.60;99.90;;;;;;4976121;28;20046;-76
2021/03/02 06:01:33;;;;;;;25.35;15.02;;;9.60;99.90;;;;;;4979201;28;20039;-76
2021/03/02 06:03:59;;;;;;;17.98;14.38;;;9.60;99.90;;;;;;4981667;28;20152;-76
2021/03/02 06:06:25;;;;;;;19.90;14.90;;;9.60;99.90;;;;;;4977121;28;21864;-76
2021/03/02 06:08:50;;;;;;;21.60;16.38;;;9.60;99.90;;;;;;4980187;28;20082;-76
2021/03/02 06:11:35;;;;;;;21.83;16.63;;;9.60;99.90;;;;;;4986337;28;20381;-76
2021/03/02 06:14:28;;;;;;;22.55;14.95;;;9.70;99.90;;;;;;4983981;28;20122;-76
2021/03/02 06:16:55;;;;;;;22.33;15.18;;;9.70;99.90;;;;;;4982716;28;20037;-76
2021/03/02 06:19:39;;;;;;;19.05;14.63;;;9.70;99.90;;;;;;4983040;28;20093;-78
2021/03/02 06:22:06;;;;;;;22.17;14.90;;;9.70;99.90;;;;;;4974950;28;20031;-76
2021/03/02 06:24:37;;;;;;;21.02;15.15;;;9.70;99.90;;;;;;4975602;28;20074;-76
2021/03/02 06:27:11;;;;;;;23.43;15.60;;;9.70;99.90;;;;;;4978372;28;20023;-76
2021/03/02 06:29:41;;;;;;;25.15;16.10;;;9.80;99.90;;;;;;4984706;28;20034;-76
2021/03/02 06:32:08;;;;;;;25.88;16.52;;;9.80;99.90;;;;;;4982128;28;20019;-76
2021/03/02 06:34:34;;;;;;;22.67;15.32;;;9.90;99.90;;;;;;4975458;28;20169;-76
2021/03/02 06:37:05;;;;;;;21.95;15.50;;;9.90;99.90;;;;;;4983495;28;20472;-76
2021/03/02 06:39:31;;;;;;;16.55;12.85;;;9.90;99.90;;;;;;4975539;28;20027;-76
2021/03/02 06:42:16;;;;;;;20.65;14.93;;;10.00;99.90;;;;;;4979149;28;20026;-75
2021/03/02 06:44:49;;;;;;;18.42;13.15;;;10.10;99.90;;;;;;4990273;28;20054;-75
2021/03/02 06:47:29;;;;;;;18.80;14.30;;;10.20;99.90;;;;;;4974279;28;20026;-76
2021/03/02 06:49:55;;;;;;;16.90;12.93;;;10.30;99.90;;;;;;4975823;28;20095;-76
2021/03/02 06:52:21;;;;;;;21.92;14.65;;;10.30;99.90;;;;;;4977351;28;20023;-76
2021/03/02 06:54:49;;;;;;;21.83;14.15;;;10.40;99.90;;;;;;4988003;28;20374;-76
2021/03/02 06:57:25;;;;;;;17.40;12.85;;;10.40;99.90;;;;;;4977547;28;20034;-76
2021/03/02 07:00:00;;;;;;;15.90;12.85;;;10.50;99.90;;;;;;4977224;28;20042;-76
2021/03/02 07:02:32;;;;;;;20.95;14.55;;;10.60;99.90;;;;;;4985979;28;20398;-76
2021/03/02 07:05:17;;;;;;;17.60;13.77;;;10.70;99.90;;;;;;5001774;28;20103;-76
2021/03/02 07:07:47;;;;;;;14.52;12.52;;;10.80;99.90;;;;;;4997155;28;20112;-76
2021/03/02 07:10:15;;;;;;;20.95;12.95;;;10.80;99.90;;;;;;4991657;28;20031;-76
2021/03/02 07:12:42;;;;;;;18.63;13.65;;;10.90;99.90;;;;;;5014606;28;20038;-76
2021/03/02 07:15:14;;;;;;;15.95;13.18;;;10.90;99.90;;;;;;5002111;28;20034;-76
2021/03/02 07:17:44;;;;;;;25.27;12.47;;;11.00;99.90;;;;;;4990397;28;20042;-76
2021/03/02 07:20:12;;;;;;;14.55;11.23;;;11.00;99.90;;;;;;4978255;28;20022;-76
2021/03/02 07:22:41;;;;;;;14.05;11.70;;;11.10;99.90;;;;;;4992073;28;20489;-76
2021/03/02 07:25:10;;;;;;;18.17;12.45;;;11.20;99.90;;;;;;4988936;28;20099;-76
2021/03/02 07:27:43;;;;;;;15.00;11.25;;;11.10;99.90;;;;;;4994397;28;20081;-76
2021/03/02 07:30:10;;;;;;;19.88;13.07;;;11.20;99.90;;;;;;4994693;28;20056;-76
2021/03/02 07:32:39;;;;;;;20.02;12.02;;;11.30;99.90;;;;;;4996434;28;20029;-76
2021/03/02 07:35:07;;;;;;;14.95;11.63;;;11.40;99.90;;;;;;4981133;28;20042;-76
2021/03/02 07:37:32;;;;;;;15.27;12.35;;;11.40;99.90;;;;;;4984343;28;20043;-77
2021/03/02 07:39:59;;;;;;;15.68;11.35;;;11.50;99.90;;;;;;4988528;28;20026;-76
2021/03/02 07:42:25;;;;;;;16.23;12.20;;;11.50;99.90;;;;;;4978801;28;20026;-76
2021/03/02 07:45:12;;;;;;;16.58;12.52;;;11.50;99.90;;;;;;4984006;28;20510;-76
2021/03/02 07:47:58;;;;;;;14.57;11.10;;;11.60;99.90;;;;;;4976809;28;20023;-75
2021/03/02 07:50:25;;;;;;;17.33;11.63;;;11.70;99.90;;;;;;4987394;28;20134;-75
2021/03/02 07:53:16;;;;;;;17.77;11.77;;;11.80;99.90;;;;;;4983132;28;20114;-75
2021/03/02 07:55:45;;;;;;;13.40;11.30;;;11.90;99.90;;;;;;4978001;28;20086;-75
2021/03/02 07:58:17;;;;;;;15.30;11.35;;;11.90;99.90;;;;;;4976616;28;20457;-75
2021/03/02 08:00:44;;;;;;;15.73;8.47;;;12.00;99.90;;;;;;4975775;28;20121;-75
2021/03/02 08:03:19;;;;;;;15.73;11.38;;;12.00;99.90;;;;;;4976883;28;20877;-75
2021/03/02 08:05:47;;;;;;;16.08;11.70;;;12.00;99.90;;;;;;4995007;28;20374;-75
2021/03/02 08:08:25;;;;;;;11.52;10.27;;;12.10;99.70;;;;;;4993986;28;20108;-75
2021/03/02 08:10:56;;;;;;;13.90;10.77;;;12.10;99.30;;;;;;4994762;28;20035;-76
2021/03/02 08:13:39;;;;;;;14.25;10.90;;;12.10;99.30;;;;;;4994551;28;20026;-75
2021/03/02 08:16:07;;;;;;;13.50;10.57;;;12.20;99.30;;;;;;4990779;28;20397;-75
2021/03/02 08:18:34;;;;;;;13.88;9.57;;;12.30;98.80;;;;;;4977052;28;20034;-75
2021/03/02 08:21:06;;;;;;;15.80;10.23;;;12.40;98.30;;;;;;4976772;28;20035;-76
2021/03/02 08:23:52;;;;;;;15.07;9.13;;;12.50;97.80;;;;;;4982342;28;20062;-74
2021/03/02 08:26:28;;;;;;;13.10;10.15;;;12.50;97.70;;;;;;4981625;28;20058;-76
2021/03/02 08:29:08;;;;;;;11.98;9.52;;;12.50;97.30;;;;;;4977084;28;20049;-76
2021/03/02 08:31:35;;;;;;;13.93;9.73;;;12.60;96.80;;;;;;4977582;28;20046;-75
2021/03/02 08:34:03;;;;;;;11.52;9.13;;;12.60;96.80;;;;;;4976029;28;20019;-76
2021/03/02 08:36:29;;;;;;;10.88;8.32;;;12.70;96.00;;;;;;4982178;28;20055;-75
2021/03/02 08:38:55;;;;;;;11.38;9.77;;;12.80;95.40;;;;;;4976617;28;20055;-75
2021/03/02 08:41:32;;;;;;;10.52;7.38;;;12.90;95.30;;;;;;4974741;28;20066;-76
2021/03/02 08:43:59;;;;;;;11.73;7.82;;;12.90;94.70;;;;;;4975632;28;20482;-77
2021/03/02 08:46:31;;;;;;;8.82;7.15;;;13.00;94.80;;;;;;4982161;28;20037;-76
2021/03/02 08:48:57;;;;;;;13.10;8.48;;;13.10;94.50;;;;;;4982941;28;20033;-74
2021/03/02 08:51:25;;;;;;;11.63;8.88;;;13.10;94.10;;;;;;4983575;28;20030;-72
2021/03/02 08:53:53;;;;;;;10.10;7.72;;;13.20;93.70;;;;;;4977574;28;20113;-72
2021/03/02 08:56:28;;;;;;;13.00;8.43;;;13.30;93.00;;;;;;4989566;28;20023;-72
2021/03/02 08:59:14;;;;;;;11.52;6.93;;;13.30;92.60;;;;;;4982254;28;20132;-73
2021/03/02 09:01:42;;;;;;;10.27;7.85;;;13.30;93.60;;;;;;4984009;28;20473;-72
2021/03/02 09:04:13;;;;;;;10.32;8.13;;;13.40;92.20;;;;;;4982716;28;20053;-74
2021/03/02 09:06:44;;;;;;;17.02;7.15;;;13.40;92.00;;;;;;4979596;28;20037;-74
2021/03/02 09:09:14;;;;;;;7.95;7.05;;;13.40;91.60;;;;;;4984210;28;20074;-74
2021/03/02 09:11:44;;;;;;;8.60;7.70;;;13.40;91.70;;;;;;4988229;28;20046;-75
2021/03/02 09:14:54;;;;;;;9.25;7.20;;;13.50;91.60;;;;;;4991920;28;20023;-74
2021/03/02 09:17:21;;;;;;;9.38;7.30;;;13.50;91.20;;;;;;4979821;28;20042;-74
2021/03/02 09:19:52;;;;;;;11.18;8.18;;;13.40;91.40;;;;;;4988347;28;20038;-74
2021/03/02 09:22:25;;;;;;;10.23;7.70;;;13.50;91.60;;;;;;4980007;28;20060;-74
2021/03/02 09:24:58;;;;;;;8.82;6.63;;;13.60;91.50;;;;;;4977049;28;20053;-74
2021/03/02 09:27:43;;;;;;;9.60;7.68;;;13.70;90.70;;;;;;4975570;28;20046;-74
2021/03/02 09:30:10;;;;;;;12.90;8.00;;;13.70;90.40;;;;;;4974544;28;20122;-74
2021/03/02 09:43:03;;;;;;;8.23;6.20;;;13.90;87.20;;;;;;4939197;28;20036;-74
2021/03/02 09:45:33;;;;;;;7.88;6.18;;;13.90;86.50;;;;;;4974385;28;20027;-74
2021/03/02 09:48:09;;;;;;;7.57;6.78;;;14.10;88.10;;;;;;4985367;28;20035;-74
2021/03/02 09:50:52;;;;;;;9.45;7.78;;;14.00;89.30;;;;;;4975963;28;20026;-74
2021/03/02 09:53:22;;;;;;;7.32;5.35;;;14.10;89.70;;;;;;4994390;28;20026;-74
2021/03/02 09:55:52;;;;;;;7.65;6.05;;;14.30;84.30;;;;;;4977615;28;20061;-78
2021/03/02 09:58:27;;;;;;;9.90;6.72;;;14.30;87.20;;;;;;4974034;28;20023;-74
2021/03/02 10:01:04;;;;;;;8.05;7.00;;;14.30;88.40;;;;;;4975143;28;20046;-74
2021/03/02 10:03:38;;;;;;;11.90;7.90;;;14.40;88.60;;;;;;4974298;28;20055;-74
2021/03/02 10:06:22;;;;;;;11.73;7.75;;;14.40;88.10;;;;;;4994850;28;20030;-74
2021/03/02 10:08:54;;;;;;;11.38;7.72;;;14.50;88.80;;;;;;4980426;28;20022;-74
2021/03/02 10:11:27;;;;;;;16.75;7.65;;;14.60;89.30;;;;;;4976748;28;20073;-74
2021/03/02 10:14:12;;;;;;;;;;;;;;;;;;;;;
2021/03/02 10:16:43;;;;;;;10.48;6.80;;;14.80;87.40;;;;;;4975395;28;20115;-74
2021/03/02 10:19:22;;;;;;;14.65;8.15;;;14.70;86.30;;;;;;4989086;28;20026;-74
2021/03/02 10:21:52;;;;;;;10.25;7.07;;;14.80;87.10;;;;;;4973872;28;20047;-74
2021/03/02 10:24:39;;;;;;;9.48;7.78;;;14.80;86.40;;;;;;4987179;28;20038;-74
2021/03/02 10:27:13;;;;;;;7.03;6.32;;;14.80;86.80;;;;;;4974753;28;20030;-74
2021/03/02 10:29:43;;;;;;;11.75;8.05;;;14.90;86.20;;;;;;4975418;28;20042;-74
2021/03/02 10:32:13;;;;;;;7.90;6.88;;;14.90;85.30;;;;;;4987336;28;20114;-74
2021/03/02 10:34:44;;;;;;;11.43;6.53;;;14.90;84.90;;;;;;4993123;28;20109;-74
2021/03/02 10:37:19;;;;;;;9.15;7.35;;;14.90;86.00;;;;;;4975679;28;20033;-74
2021/03/02 10:40:03;;;;;;;9.73;7.38;;;15.00;84.50;;;;;;4973502;28;20472;-75
2021/03/02 10:42:30;;;;;;;8.20;6.78;;;15.00;85.00;;;;;;4977254;28;20400;-74
2021/03/02 10:45:31;;;;;;;7.78;7.03;;;15.10;85.40;;;;;;4979566;28;20440;-74
2021/03/02 10:48:11;;;;;;;8.52;6.82;;;15.20;85.80;;;;;;4983705;28;20030;-74
2021/03/02 10:50:38;;;;;;;8.50;7.57;;;15.40;83.60;;;;;;4991132;28;20046;-74
2021/03/02 10:53:09;;;;;;;10.00;8.15;;;15.40;83.30;;;;;;4977375;28;20085;-74
2021/03/02 10:55:50;;;;;;;9.23;7.07;;;15.40;84.00;;;;;;4973857;28;20498;-74
2021/03/02 10:58:18;;;;;;;8.18;7.30;;;15.40;84.30;;;;;;4974408;28;20395;-74
2021/03/02 11:00:50;;;;;;;9.95;7.75;;;15.40;83.10;;;;;;4986704;28;20053;-74
2021/03/02 11:03:21;;;;;;;6.70;6.00;;;15.30;83.20;;;;;;4973878;28;20162;-74
2021/03/02 11:06:09;;;;;;;7.55;6.75;;;15.40;83.50;;;;;;4975606;28;20035;-74
2021/03/02 11:08:36;;;;;;;18.55;7.75;;;15.50;83.00;;;;;;4992788;28;20042;-74
2021/03/02 11:11:12;;;;;;;13.00;8.50;;;15.30;90.10;;;;;;4977407;28;20093;-74
2021/03/02 11:13:43;;;;;;;8.70;7.50;;;14.80;90.30;;;;;;4987168;28;20033;-74
2021/03/02 11:16:10;;;;;;;11.45;7.30;;;14.40;90.30;;;;;;4997402;28;20503;-74
2021/03/02 11:18:39;;;;;;;14.27;10.27;;;14.20;94.70;;;;;;4997171;28;20030;-74
2021/03/02 11:21:11;;;;;;;12.55;9.95;;;13.70;99.90;;;;;;4985645;28;20152;-74
2021/03/02 11:23:44;;;;;;;14.93;10.43;;;13.30;99.90;;;;;;4982485;28;20050;-76
2021/03/02 11:26:10;;;;;;;16.20;11.07;;;13.10;99.90;;;;;;4977780;28;20031;-76
2021/03/02 11:28:37;;;;;;;16.98;10.90;;;13.10;99.90;;;;;;4980441;28;20409;-75
2021/03/02 11:31:07;;;;;;;11.27;9.07;;;12.90;99.90;;;;;;4987998;28;20085;-74
2021/03/02 11:33:34;;;;;;;23.35;10.82;;;12.90;99.90;;;;;;4998895;28;20049;-75
2021/03/02 11:36:02;;;;;;;14.48;9.88;;;12.90;99.90;;;;;;4990889;28;20034;-75
2021/03/02 11:38:29;;;;;;;15.73;9.98;;;12.90;99.90;;;;;;4992671;28;20027;-74
2021/03/02 11:40:59;;;;;;;24.25;9.75;;;12.90;99.90;;;;;;5003724;28;20026;-75
2021/03/02 11:43:37;;;;;;;21.23;9.57;;;12.90;99.90;;;;;;5004932;28;20054;-74
2021/03/02 11:46:15;;;;;;;10.82;8.25;;;12.90;99.90;;;;;;5005794;28;20034;-75
2021/03/02 11:48:44;;;;;;;8.85;7.57;;;12.90;99.90;;;;;;4987949;28;20046;-75
2021/03/02 11:51:24;;;;;;;12.07;8.95;;;12.90;99.90;;;;;;4986845;28;20081;-75
2021/03/02 11:53:54;;;;;;;10.70;8.50;;;12.80;99.90;;;;;;4991134;28;20053;-74
2021/03/02 11:56:20;;;;;;;10.13;8.13;;;12.70;99.90;;;;;;4980828;28;20138;-75
2021/03/02 11:58:48;;;;;;;8.27;7.45;;;12.70;99.90;;;;;;4987871;28;20049;-75
2021/03/02 12:01:16;;;;;;;13.18;8.35;;;12.70;99.90;;;;;;4978769;28;20138;-74
2021/03/02 12:03:46;;;;;;;10.77;8.60;;;12.70;99.90;;;;;;4977266;28;20508;-74
2021/03/02 12:06:22;;;;;;;10.95;7.93;;;12.70;99.90;;;;;;4971005;28;20070;-75
2021/03/02 12:08:54;;;;;;;10.23;7.93;;;12.70;99.90;;;;;;4979788;28;20097;-75
2021/03/02 12:11:30;;;;;;;18.20;8.15;;;12.80;99.90;;;;;;4981210;28;20385;-75
2021/03/02 12:14:03;;;;;;;11.93;9.07;;;12.80;99.90;;;;;;4987050;28;20026;-74
2021/03/02 12:16:35;;;;;;;12.65;8.70;;;13.00;99.90;;;;;;4980037;28;20039;-73
2021/03/02 12:19:01;;;;;;;;;;;13.10;99.90;;;;;;4966704;28;20027;-74
2021/03/02 12:21:30;;;;;;;9.48;7.55;;;13.10;99.90;;;;;;4980484;28;19917;-74
2021/03/02 12:24:05;;;;;;;8.65;7.47;;;13.20;99.70;;;;;;4986663;28;20337;-75
2021/03/02 12:26:35;;;;;;;11.88;7.45;;;13.10;99.40;;;;;;4980454;28;20493;-75
2021/03/02 12:29:20;;;;;;;11.23;7.88;;;13.20;98.80;;;;;;4991290;28;20094;-75
2021/03/02 12:31:50;;;;;;;11.07;6.72;;;13.40;99.10;;;;;;4982380;28;20019;-75
2021/03/02 12:34:18;;;;;;;14.20;7.57;;;13.40;98.80;;;;;;4988348;28;20038;-75
2021/03/02 12:36:49;;;;;;;8.90;7.80;;;13.40;98.90;;;;;;4981292;28;20039;-75
2021/03/02 12:39:20;;;;;;;10.50;8.05;;;13.40;98.90;;;;;;4988072;28;20022;-75
2021/03/02 12:41:53;;;;;;;12.48;8.60;;;13.30;99.10;;;;;;4973570;28;20039;-75
2021/03/02 12:44:23;;;;;;;10.52;8.45;;;13.40;99.30;;;;;;4992798;28;20129;-75
2021/03/02 12:46:51;;;;;;;9.40;8.40;;;13.30;99.40;;;;;;4979729;28;20033;-75
2021/03/02 12:49:18;;;;;;;11.75;7.68;;;13.40;99.70;;;;;;4979499;28;20047;-75
2021/03/02 12:51:46;;;;;;;11.55;7.90;;;13.40;98.70;;;;;;4979462;28;20037;-75
2021/03/02 12:54:13;;;;;;;10.55;7.45;;;13.40;99.30;;;;;;4978193;28;20385;-75
2021/03/02 12:56:44;;;;;;;10.45;7.78;;;13.50;97.50;;;;;;4983307;28;20062;-75
2021/03/02 12:59:18;;;;;;;9.77;7.28;;;13.40;97.00;;;;;;4975343;28;20381;-75
2021/03/02 13:01:45;;;;;;;11.43;7.88;;;13.40;97.60;;;;;;4991113;28;20022;-75
2021/03/02 13:04:13;;;;;;;13.77;7.82;;;13.30;97.30;;;;;;4991836;28;20031;-75